sensor_id;sensor_type;location;lat;lon;timestamp;pressure;altitude;pressure_sealevel;temperature;humidity
81622;BME280;71029;50.742;7.090;2023-07-29T00:00:03;100296.78;;;20.84;74.54
81622;BME280;71029;50.742;7.090;2023-07-29T00:02:29;100296.78;;;20.84;74.61
81622;BME280;71029;50.742;7.090;2023-07-29T00:04:57;100296.78;;;20.84;74.75
81622;BME280;71029;50.742;7.090;2023-07-29T00:07:23;100290.53;;;20.83;74.68
81622;BME280;71029;50.742;7.090;2023-07-29T00:09:50;100288.66;;;20.84;74.93
81622;BME280;71029;50.742;7.090;2023-07-29T00:12:16;100292.44;;;20.83;74.47
81622;BME280;71029;50.742;7.090;2023-07-29T00:14:43;100285.13;;;20.83;74.50
81622;BME280;71029;50.742;7.090;2023-07-29T00:17:09;100284.31;;;20.83;74.65
81622;BME280;71029;50.742;7.090;2023-07-29T00:19:36;100285.38;;;20.82;74.62
81622;BME280;71029;50.742;7.090;2023-07-29T00:22:02;100279.72;;;20.83;74.71
81622;BME280;71029;50.742;7.090;2023-07-29T00:24:29;100278.06;;;20.82;74.79
81622;BME280;71029;50.742;7.090;2023-07-29T00:26:55;100278.06;;;20.82;74.62
81622;BME280;71029;50.742;7.090;2023-07-29T00:29:22;100270.19;;;20.81;74.67
81622;BME280;71029;50.742;7.090;2023-07-29T00:31:49;100279.94;;;20.82;74.72
81622;BME280;71029;50.742;7.090;2023-07-29T00:34:15;100279.13;;;20.81;74.63
81622;BME280;71029;50.742;7.090;2023-07-29T00:36:45;100281.03;;;20.81;74.25
81622;BME280;71029;50.742;7.090;2023-07-29T00:39:12;100279.13;;;20.81;74.69
81622;BME280;71029;50.742;7.090;2023-07-29T00:41:39;100283.72;;;20.81;74.53
81622;BME280;71029;50.742;7.090;2023-07-29T00:44:06;100277.50;;;20.80;74.58
81622;BME280;71029;50.742;7.090;2023-07-29T00:46:34;100270.44;;;20.79;74.50
81622;BME280;71029;50.742;7.090;2023-07-29T00:49:02;100272.06;;;20.80;74.71
81622;BME280;71029;50.742;7.090;2023-07-29T00:51:29;100269.59;;;20.79;74.04
81622;BME280;71029;50.742;7.090;2023-07-29T00:53:55;100263.94;;;20.80;74.70
81622;BME280;71029;50.742;7.090;2023-07-29T00:56:22;100257.97;;;20.78;74.38
81622;BME280;71029;50.742;7.090;2023-07-29T00:58:49;100256.91;;;20.79;74.35
81622;BME280;71029;50.742;7.090;2023-07-29T01:01:18;100253.38;;;20.79;74.50
81622;BME280;71029;50.742;7.090;2023-07-29T01:03:44;100247.13;;;20.78;74.43
81622;BME280;71029;50.742;7.090;2023-07-29T01:11:41;100254.44;;;20.78;74.32
81622;BME280;71029;50.742;7.090;2023-07-29T01:17:04;100254.44;;;20.78;74.22
81622;BME280;71029;50.742;7.090;2023-07-29T01:19:42;100248.16;;;20.77;74.25
81622;BME280;71029;50.742;7.090;2023-07-29T01:22:10;100241.94;;;20.77;74.76
81622;BME280;71029;50.742;7.090;2023-07-29T01:24:37;100245.47;;;20.77;74.21
81622;BME280;71029;50.742;7.090;2023-07-29T01:27:03;100242.75;;;20.77;74.39
81622;BME280;71029;50.742;7.090;2023-07-29T01:29:31;100241.09;;;20.76;74.51
81622;BME280;71029;50.742;7.090;2023-07-29T01:32:02;100241.94;;;20.77;74.85
81622;BME280;71029;50.742;7.090;2023-07-29T01:34:41;100238.41;;;20.76;74.15
81622;BME280;71029;50.742;7.090;2023-07-29T01:37:09;100243.00;;;20.76;73.95
81622;BME280;71029;50.742;7.090;2023-07-29T01:39:39;100243.00;;;20.76;74.50
81622;BME280;71029;50.742;7.090;2023-07-29T01:42:06;100234.88;;;20.76;74.39
81622;BME280;71029;50.742;7.090;2023-07-29T01:44:34;100234.03;;;20.75;74.08
81622;BME280;71029;50.742;7.090;2023-07-29T01:47:02;100238.41;;;20.76;74.08
81622;BME280;71029;50.742;7.090;2023-07-29T01:49:28;100239.47;;;20.75;74.27
81622;BME280;71029;50.742;7.090;2023-07-29T01:51:54;100232.41;;;20.74;74.48
81622;BME280;71029;50.742;7.090;2023-07-29T01:54:21;100228.63;;;20.75;74.13
81622;BME280;71029;50.742;7.090;2023-07-29T01:56:48;100223.47;;;20.74;73.91
81622;BME280;71029;50.742;7.090;2023-07-29T01:59:14;100227.81;;;20.75;74.40
81622;BME280;71029;50.742;7.090;2023-07-29T02:01:42;100221.56;;;20.74;74.44
81622;BME280;71029;50.742;7.090;2023-07-29T02:04:09;100219.69;;;20.75;74.41
81622;BME280;71029;50.742;7.090;2023-07-29T02:06:35;100215.34;;;20.74;74.38
81622;BME280;71029;50.742;7.090;2023-07-29T02:09:02;100222.41;;;20.75;73.99
81622;BME280;71029;50.742;7.090;2023-07-29T02:11:30;100211.81;;;20.73;74.33
81622;BME280;71029;50.742;7.090;2023-07-29T02:13:57;100209.94;;;20.74;74.00
81622;BME280;71029;50.742;7.090;2023-07-29T02:16:23;100203.69;;;20.73;74.21
81622;BME280;71029;50.742;7.090;2023-07-29T02:18:50;100206.41;;;20.73;73.67
81622;BME280;71029;50.742;7.090;2023-07-29T02:21:19;100221.56;;;20.74;73.87
81622;BME280;71029;50.742;7.090;2023-07-29T02:23:46;100206.41;;;20.73;74.34
81622;BME280;71029;50.742;7.090;2023-07-29T02:26:12;100209.09;;;20.73;74.06
81622;BME280;71029;50.742;7.090;2023-07-29T02:28:39;100205.34;;;20.74;73.92
81622;BME280;71029;50.742;7.090;2023-07-29T02:31:24;100202.88;;;20.73;73.83
81622;BME280;71029;50.742;7.090;2023-07-29T02:33:51;100199.34;;;20.72;73.92
81622;BME280;71029;50.742;7.090;2023-07-29T02:36:18;100196.41;;;20.74;74.38
81622;BME280;71029;50.742;7.090;2023-07-29T02:38:44;100197.47;;;20.73;74.38
81622;BME280;71029;50.742;7.090;2023-07-29T02:41:11;100216.41;;;20.73;74.37
81622;BME280;71029;50.742;7.090;2023-07-29T02:43:48;100217.22;;;20.73;74.07
81622;BME280;71029;50.742;7.090;2023-07-29T02:46:15;100224.53;;;20.73;74.55
81622;BME280;71029;50.742;7.090;2023-07-29T02:48:44;100235.34;;;20.73;74.24
81622;BME280;71029;50.742;7.090;2023-07-29T02:51:10;100220.19;;;20.72;74.31
81622;BME280;71029;50.742;7.090;2023-07-29T02:53:37;100223.69;;;20.72;74.27
81622;BME280;71029;50.742;7.090;2023-07-29T02:56:04;100236.41;;;20.72;74.32
81622;BME280;71029;50.742;7.090;2023-07-29T02:58:30;100237.22;;;20.72;74.14
81622;BME280;71029;50.742;7.090;2023-07-29T03:01:01;100233.69;;;20.72;74.35
81622;BME280;71029;50.742;7.090;2023-07-29T03:03:30;100233.69;;;20.72;73.95
81622;BME280;71029;50.742;7.090;2023-07-29T03:06:02;100239.13;;;20.72;73.89
81622;BME280;71029;50.742;7.090;2023-07-29T03:08:29;100221.00;;;20.72;74.37
81622;BME280;71029;50.742;7.090;2023-07-29T03:10:56;100219.09;;;20.73;74.06
81622;BME280;71029;50.742;7.090;2023-07-29T03:13:23;100227.47;;;20.71;73.92
81622;BME280;71029;50.742;7.090;2023-07-29T03:15:50;100222.88;;;20.72;74.28
81622;BME280;71029;50.742;7.090;2023-07-29T03:18:17;100211.22;;;20.71;74.14
81622;BME280;71029;50.742;7.090;2023-07-29T03:20:43;100210.41;;;20.71;73.79
81622;BME280;71029;50.742;7.090;2023-07-29T03:23:10;100225.81;;;20.70;74.17
81622;BME280;71029;50.742;7.090;2023-07-29T03:25:36;100228.53;;;20.70;74.29
81622;BME280;71029;50.742;7.090;2023-07-29T03:28:03;100235.81;;;20.70;74.24
81622;BME280;71029;50.742;7.090;2023-07-29T03:30:29;100236.66;;;20.70;73.99
81622;BME280;71029;50.742;7.090;2023-07-29T03:32:56;100248.28;;;20.71;74.22
81622;BME280;71029;50.742;7.090;2023-07-29T03:35:23;100250.19;;;20.70;73.83
81622;BME280;71029;50.742;7.090;2023-07-29T03:37:49;100250.38;;;20.68;73.98
81622;BME280;71029;50.742;7.090;2023-07-29T03:40:15;100253.09;;;20.68;74.23
81622;BME280;71029;50.742;7.090;2023-07-29T03:42:42;100249.56;;;20.68;73.73
81622;BME280;71029;50.742;7.090;2023-07-29T03:45:09;100234.16;;;20.68;74.16
81622;BME280;71029;50.742;7.090;2023-07-29T03:47:36;100244.97;;;20.68;73.90
81622;BME280;71029;50.742;7.090;2023-07-29T03:50:03;100242.50;;;20.67;74.34
81622;BME280;71029;50.742;7.090;2023-07-29T03:52:29;100241.69;;;20.66;73.99
81622;BME280;71029;50.742;7.090;2023-07-29T03:54:56;100231.69;;;20.67;74.20
81622;BME280;71029;50.742;7.090;2023-07-29T03:57:22;100206.50;;;20.66;74.04
81622;BME280;71029;50.742;7.090;2023-07-29T03:59:49;100203.81;;;20.66;74.50
81622;BME280;71029;50.742;7.090;2023-07-29T04:02:15;100209.22;;;20.66;74.44
81622;BME280;71029;50.742;7.090;2023-07-29T04:04:42;100218.41;;;20.65;74.82
81622;BME280;71029;50.742;7.090;2023-07-29T04:07:10;100226.50;;;20.65;74.56
81622;BME280;71029;50.742;7.090;2023-07-29T04:09:37;100239.22;;;20.65;74.80
81622;BME280;71029;50.742;7.090;2023-07-29T04:12:03;100235.94;;;20.63;74.32
81622;BME280;71029;50.742;7.090;2023-07-29T04:14:30;100251.94;;;20.64;74.30
81622;BME280;71029;50.742;7.090;2023-07-29T04:16:57;100244.63;;;20.65;74.37
81622;BME280;71029;50.742;7.090;2023-07-29T04:19:24;100245.69;;;20.64;74.35
81622;BME280;71029;50.742;7.090;2023-07-29T04:21:50;100248.41;;;20.64;74.32
81622;BME280;71029;50.742;7.090;2023-07-29T04:24:17;100248.41;;;20.64;74.20
81622;BME280;71029;50.742;7.090;2023-07-29T04:26:43;100241.34;;;20.63;74.67
81622;BME280;71029;50.742;7.090;2023-07-29T04:29:11;100246.75;;;20.63;74.64
81622;BME280;71029;50.742;7.090;2023-07-29T04:31:38;100252.16;;;20.63;74.44
81622;BME280;71029;50.742;7.090;2023-07-29T04:34:05;100235.13;;;20.62;74.99
81622;BME280;71029;50.742;7.090;2023-07-29T04:36:32;100233.22;;;20.63;74.37
81622;BME280;71029;50.742;7.090;2023-07-29T04:38:58;100238.88;;;20.61;74.66
81622;BME280;71029;50.742;7.090;2023-07-29T04:41:25;100238.25;;;20.59;74.53
81622;BME280;71029;50.742;7.090;2023-07-29T04:43:51;100244.28;;;20.61;74.56
81622;BME280;71029;50.742;7.090;2023-07-29T04:46:18;100239.69;;;20.62;74.33
81622;BME280;71029;50.742;7.090;2023-07-29T04:48:45;100247.81;;;20.62;75.17
81622;BME280;71029;50.742;7.090;2023-07-29T04:51:11;100245.13;;;20.62;74.85
81622;BME280;71029;50.742;7.090;2023-07-29T04:53:38;100250.53;;;20.62;75.17
81622;BME280;71029;50.742;7.090;2023-07-29T04:56:05;100250.53;;;20.62;74.54
81622;BME280;71029;50.742;7.090;2023-07-29T04:58:31;100254.25;;;20.61;74.96
81622;BME280;71029;50.742;7.090;2023-07-29T05:01:02;100262.38;;;20.61;74.84
81622;BME280;71029;50.742;7.090;2023-07-29T05:03:29;100255.94;;;20.62;75.03
81622;BME280;71029;50.742;7.090;2023-07-29T05:05:56;100260.53;;;20.61;74.85
81622;BME280;71029;50.742;7.090;2023-07-29T05:08:23;100251.78;;;20.59;74.99
81622;BME280;71029;50.742;7.090;2023-07-29T05:10:51;100255.94;;;20.62;75.23
81622;BME280;71029;50.742;7.090;2023-07-29T05:13:18;100255.13;;;20.61;75.01
81622;BME280;71029;50.742;7.090;2023-07-29T05:15:47;100263.22;;;20.61;74.89
81622;BME280;71029;50.742;7.090;2023-07-29T05:18:14;100258.84;;;20.60;75.24
81622;BME280;71029;50.742;7.090;2023-07-29T05:20:41;100259.66;;;20.61;75.02
81622;BME280;71029;50.742;7.090;2023-07-29T05:23:07;100260.53;;;20.61;74.88
81622;BME280;71029;50.742;7.090;2023-07-29T05:25:33;100254.25;;;20.61;75.06
81622;BME280;71029;50.742;7.090;2023-07-29T05:28:03;100253.00;;;20.63;74.45
81622;BME280;71029;50.742;7.090;2023-07-29T05:30:30;100255.69;;;20.63;74.59
81622;BME280;71029;50.742;7.090;2023-07-29T05:33:06;100256.53;;;20.64;73.96
81622;BME280;71029;50.742;7.090;2023-07-29T05:35:36;100261.69;;;20.65;73.85
81622;BME280;71029;50.742;7.090;2023-07-29T05:38:03;100283.94;;;20.67;74.07
81622;BME280;71029;50.742;7.090;2023-07-29T05:40:31;100283.69;;;20.69;74.08
81622;BME280;71029;50.742;7.090;2023-07-29T05:42:57;100285.38;;;20.70;73.79
81622;BME280;71029;50.742;7.090;2023-07-29T05:45:24;100283.69;;;20.69;74.38
81622;BME280;71029;50.742;7.090;2023-07-29T05:47:51;100273.94;;;20.68;73.84
81622;BME280;71029;50.742;7.090;2023-07-29T05:50:18;100271.22;;;20.68;74.60
81622;BME280;71029;50.742;7.090;2023-07-29T05:52:44;100275.00;;;20.67;74.44
81622;BME280;71029;50.742;7.090;2023-07-29T05:55:11;100272.03;;;20.68;74.63
81622;BME280;71029;50.742;7.090;2023-07-29T05:57:37;100279.34;;;20.68;74.93
81622;BME280;71029;50.742;7.090;2023-07-29T06:00:06;100269.56;;;20.67;75.08
81622;BME280;71029;50.742;7.090;2023-07-29T06:02:33;100283.94;;;20.67;74.62
81622;BME280;71029;50.742;7.090;2023-07-29T06:05:00;100285.81;;;20.67;75.00
81622;BME280;71029;50.742;7.090;2023-07-29T06:07:27;100291.22;;;20.67;74.85
81622;BME280;71029;50.742;7.090;2023-07-29T06:09:56;100296.63;;;20.67;74.61
81622;BME280;71029;50.742;7.090;2023-07-29T06:12:23;100306.63;;;20.66;74.72
81622;BME280;71029;50.742;7.090;2023-07-29T06:14:50;100316.41;;;20.67;75.07
81622;BME280;71029;50.742;7.090;2023-07-29T06:17:16;100308.28;;;20.67;74.96
81622;BME280;71029;50.742;7.090;2023-07-29T06:19:43;100315.59;;;20.67;74.90
81622;BME280;71029;50.742;7.090;2023-07-29T06:22:10;100317.22;;;20.68;75.16
81622;BME280;71029;50.742;7.090;2023-07-29T06:24:36;100319.09;;;20.67;75.00
81622;BME280;71029;50.742;7.090;2023-07-29T06:27:03;100327.84;;;20.70;74.26
81622;BME280;71029;50.742;7.090;2023-07-29T06:29:29;100334.91;;;20.71;74.25
81622;BME280;71029;50.742;7.090;2023-07-29T06:31:56;100327.59;;;20.71;74.94
81622;BME280;71029;50.742;7.090;2023-07-29T06:34:23;100328.66;;;20.70;74.85
81622;BME280;71029;50.742;7.090;2023-07-29T06:36:52;100329.50;;;20.71;75.24
81622;BME280;71029;50.742;7.090;2023-07-29T06:39:18;100337.59;;;20.71;75.44
81622;BME280;71029;50.742;7.090;2023-07-29T06:41:45;100330.31;;;20.71;75.52
81622;BME280;71029;50.742;7.090;2023-07-29T06:44:11;100337.38;;;20.72;75.44
81622;BME280;71029;50.742;7.090;2023-07-29T06:46:38;100346.56;;;20.71;75.33
81622;BME280;71029;50.742;7.090;2023-07-29T06:49:05;100330.31;;;20.71;75.36
81622;BME280;71029;50.742;7.090;2023-07-29T06:51:32;100330.91;;;20.73;75.01
81622;BME280;71029;50.742;7.090;2023-07-29T06:54:03;100326.91;;;20.76;74.97
81622;BME280;71029;50.742;7.090;2023-07-29T06:56:30;100327.72;;;20.76;74.61
81622;BME280;71029;50.742;7.090;2023-07-29T06:58:56;100327.72;;;20.76;74.88
81622;BME280;71029;50.742;7.090;2023-07-29T07:01:23;100329.97;;;20.79;74.62
81622;BME280;71029;50.742;7.090;2023-07-29T07:03:50;100335.16;;;20.81;74.44
81622;BME280;71029;50.742;7.090;2023-07-29T07:06:16;100336.81;;;20.82;74.97
81622;BME280;71029;50.742;7.090;2023-07-29T07:08:43;100334.22;;;20.87;74.89
81622;BME280;71029;50.742;7.090;2023-07-29T07:11:10;100340.00;;;20.90;74.72
81622;BME280;71029;50.742;7.090;2023-07-29T07:13:37;100343.53;;;20.91;74.48
81622;BME280;71029;50.742;7.090;2023-07-29T07:16:03;100350.81;;;20.90;74.02
81622;BME280;71029;50.742;7.090;2023-07-29T07:18:30;100366.81;;;20.92;74.30
81622;BME280;71029;50.742;7.090;2023-07-29T07:20:56;100361.41;;;20.92;74.27
81622;BME280;71029;50.742;7.090;2023-07-29T07:23:23;100361.22;;;20.93;74.00
81622;BME280;71029;50.742;7.090;2023-07-29T07:25:49;100359.31;;;20.94;74.09
81622;BME280;71029;50.742;7.090;2023-07-29T07:28:16;100357.44;;;20.94;73.31
81622;BME280;71029;50.742;7.090;2023-07-29T07:30:42;100360.72;;;20.97;73.83
81622;BME280;71029;50.742;7.090;2023-07-29T07:33:09;100364.03;;;20.99;73.86
81622;BME280;71029;50.742;7.090;2023-07-29T07:35:36;100359.19;;;21.01;73.81
81622;BME280;71029;50.742;7.090;2023-07-29T07:38:02;100361.69;;;21.02;73.35
81622;BME280;71029;50.742;7.090;2023-07-29T07:40:31;100374.16;;;21.03;73.83
81622;BME280;71029;50.742;7.090;2023-07-29T07:42:58;100372.63;;;21.07;73.81
81622;BME280;71029;50.742;7.090;2023-07-29T07:45:24;100370.97;;;21.06;73.19
81622;BME280;71029;50.742;7.090;2023-07-29T07:47:54;100364.75;;;21.06;73.29
81622;BME280;71029;50.742;7.090;2023-07-29T07:50:20;100360.97;;;21.07;73.18
81622;BME280;71029;50.742;7.090;2023-07-29T07:52:47;100367.44;;;21.06;72.84
81622;BME280;71029;50.742;7.090;2023-07-29T07:55:13;100360.16;;;21.06;73.23
81622;BME280;71029;50.742;7.090;2023-07-29T07:57:40;100358.25;;;21.07;72.81
81622;BME280;71029;50.742;7.090;2023-07-29T08:00:06;100352.41;;;21.10;72.86
81622;BME280;71029;50.742;7.090;2023-07-29T08:02:33;100352.97;;;21.12;73.27
81622;BME280;71029;50.742;7.090;2023-07-29T08:05:00;100355.09;;;21.10;73.23
81622;BME280;71029;50.742;7.090;2023-07-29T08:07:26;100344.28;;;21.10;73.11
81622;BME280;71029;50.742;7.090;2023-07-29T08:09:52;100351.78;;;21.08;73.26
81622;BME280;71029;50.742;7.090;2023-07-29T08:12:19;100369.91;;;21.07;73.09
81622;BME280;71029;50.742;7.090;2023-07-29T08:14:45;100358.50;;;21.05;73.09
81622;BME280;71029;50.742;7.090;2023-07-29T08:17:12;100373.69;;;21.06;72.98
81622;BME280;71029;50.742;7.090;2023-07-29T08:19:39;100363.91;;;21.05;72.74
81622;BME280;71029;50.742;7.090;2023-07-29T08:22:05;100372.88;;;21.06;72.81
81622;BME280;71029;50.742;7.090;2023-07-29T08:24:32;100369.34;;;21.05;72.41
81622;BME280;71029;50.742;7.090;2023-07-29T08:26:58;100373.44;;;21.08;72.72
81622;BME280;71029;50.742;7.090;2023-07-29T08:29:25;100375.09;;;21.09;72.51
81622;BME280;71029;50.742;7.090;2023-07-29T08:31:51;100373.22;;;21.09;72.68
81622;BME280;71029;50.742;7.090;2023-07-29T08:34:17;100375.72;;;21.11;72.65
81622;BME280;71029;50.742;7.090;2023-07-29T08:36:44;100381.94;;;21.11;72.43
81622;BME280;71029;50.742;7.090;2023-07-29T08:39:11;100387.38;;;21.11;72.35
81622;BME280;71029;50.742;7.090;2023-07-29T08:41:48;100385.47;;;21.12;72.50
81622;BME280;71029;50.742;7.090;2023-07-29T08:44:21;100390.06;;;21.11;72.35
81622;BME280;71029;50.742;7.090;2023-07-29T08:46:51;100392.78;;;21.11;72.02
81622;BME280;71029;50.742;7.090;2023-07-29T08:49:18;100390.31;;;21.10;71.99
81622;BME280;71029;50.742;7.090;2023-07-29T08:51:46;100391.97;;;21.11;71.91
81622;BME280;71029;50.742;7.090;2023-07-29T08:54:14;100391.13;;;21.10;72.00
81622;BME280;71029;50.742;7.090;2023-07-29T08:56:41;100393.47;;;21.07;72.12
81622;BME280;71029;50.742;7.090;2023-07-29T08:59:10;100395.34;;;21.06;71.65
81622;BME280;71029;50.742;7.090;2023-07-29T09:01:38;100390.19;;;21.05;71.78
81622;BME280;71029;50.742;7.090;2023-07-29T09:04:05;100388.53;;;21.04;71.97
81622;BME280;71029;50.742;7.090;2023-07-29T09:06:32;100406.66;;;21.03;71.97
81622;BME280;71029;50.742;7.090;2023-07-29T09:09:01;100397.72;;;21.03;71.79
81622;BME280;71029;50.742;7.090;2023-07-29T09:11:28;100401.47;;;21.02;71.91
81622;BME280;71029;50.742;7.090;2023-07-29T09:13:54;100399.81;;;21.01;71.78
81622;BME280;71029;50.742;7.090;2023-07-29T09:16:22;100402.31;;;21.02;71.31
81622;BME280;71029;50.742;7.090;2023-07-29T09:18:50;100405.22;;;21.01;71.38
81622;BME280;71029;50.742;7.090;2023-07-29T09:21:17;100406.91;;;21.02;71.49
81622;BME280;71029;50.742;7.090;2023-07-29T09:23:44;100400.03;;;20.99;71.19
81622;BME280;71029;50.742;7.090;2023-07-29T09:26:11;100396.28;;;21.00;71.08
81622;BME280;71029;50.742;7.090;2023-07-29T09:28:39;100397.34;;;20.99;71.02
81622;BME280;71029;50.742;7.090;2023-07-29T09:31:06;100393.81;;;20.99;71.01
81622;BME280;71029;50.742;7.090;2023-07-29T09:33:35;100397.34;;;20.99;70.91
81622;BME280;71029;50.742;7.090;2023-07-29T09:36:09;100402.75;;;20.99;71.04
81622;BME280;71029;50.742;7.090;2023-07-29T09:38:36;100395.69;;;20.98;71.01
81622;BME280;71029;50.742;7.090;2023-07-29T09:41:03;100396.28;;;21.00;71.43
81622;BME280;71029;50.742;7.090;2023-07-29T09:43:31;100396.50;;;20.99;71.64
81622;BME280;71029;50.742;7.090;2023-07-29T09:46:02;100393.56;;;21.00;70.89
81622;BME280;71029;50.742;7.090;2023-07-29T09:48:33;100398.78;;;21.02;71.37
81622;BME280;71029;50.742;7.090;2023-07-29T09:51:12;100395.22;;;21.01;70.76
81622;BME280;71029;50.742;7.090;2023-07-29T09:53:44;100398.16;;;21.00;70.79
81622;BME280;71029;50.742;7.090;2023-07-29T09:56:14;100401.09;;;20.98;71.18
81622;BME280;71029;50.742;7.090;2023-07-29T09:58:42;100401.09;;;20.98;70.84
81622;BME280;71029;50.742;7.090;2023-07-29T10:01:09;100395.69;;;20.98;71.05
81622;BME280;71029;50.742;7.090;2023-07-29T10:03:36;100399.22;;;20.99;70.70
81622;BME280;71029;50.742;7.090;2023-07-29T10:06:04;100406.28;;;21.00;71.12
81622;BME280;71029;50.742;7.090;2023-07-29T10:08:31;100406.53;;;20.98;70.62
81622;BME280;71029;50.742;7.090;2023-07-29T10:10:59;100403.00;;;20.98;70.62
81622;BME280;71029;50.742;7.090;2023-07-29T10:13:27;100413.00;;;20.97;70.78
81622;BME280;71029;50.742;7.090;2023-07-29T10:15:54;100407.59;;;20.97;70.88
81622;BME280;71029;50.742;7.090;2023-07-29T10:18:23;100409.47;;;20.97;70.54
81622;BME280;71029;50.742;7.090;2023-07-29T10:20:51;100421.34;;;20.95;70.50
81622;BME280;71029;50.742;7.090;2023-07-29T10:23:21;100435.72;;;20.96;70.67
81622;BME280;71029;50.742;7.090;2023-07-29T10:26:03;100430.31;;;20.96;70.22
81622;BME280;71029;50.742;7.090;2023-07-29T10:28:32;100436.53;;;20.97;70.45
81622;BME280;71029;50.742;7.090;2023-07-29T10:30:59;100437.59;;;20.95;70.47
81622;BME280;71029;50.742;7.090;2023-07-29T10:33:26;100425.72;;;20.97;70.08
81622;BME280;71029;50.742;7.090;2023-07-29T10:35:53;100433.00;;;20.96;70.60
81622;BME280;71029;50.742;7.090;2023-07-29T10:38:22;100433.84;;;20.97;70.80
81622;BME280;71029;50.742;7.090;2023-07-29T10:40:55;100436.53;;;20.97;70.81
81622;BME280;71029;50.742;7.090;2023-07-29T10:43:32;100438.66;;;20.94;71.21
81622;BME280;71029;50.742;7.090;2023-07-29T10:46:15;100438.66;;;20.94;70.54
81622;BME280;71029;50.742;7.090;2023-07-29T10:51:35;100435.13;;;20.94;71.73
81622;BME280;71029;50.742;7.090;2023-07-29T10:54:04;100434.31;;;20.93;71.93
81622;BME280;71029;50.742;7.090;2023-07-29T10:56:37;100432.44;;;20.94;71.63
81622;BME280;71029;50.742;7.090;2023-07-29T11:01:40;100423.47;;;20.93;72.43
81622;BME280;71029;50.742;7.090;2023-07-29T11:04:29;100424.06;;;20.95;72.10
81622;BME280;71029;50.742;7.090;2023-07-29T11:17:41;100416.06;;;21.01;72.97
81622;BME280;71029;50.742;7.090;2023-07-29T11:20:09;100416.88;;;21.01;73.13
81622;BME280;71029;50.742;7.090;2023-07-29T11:22:36;100418.56;;;21.02;73.19
81622;BME280;71029;50.742;7.090;2023-07-29T11:25:04;100426.69;;;21.02;72.46
81622;BME280;71029;50.742;7.090;2023-07-29T11:27:31;100419.38;;;21.03;72.63
81622;BME280;71029;50.742;7.090;2023-07-29T11:30:03;100414.78;;;21.03;72.56
81622;BME280;71029;50.742;7.090;2023-07-29T11:32:32;100417.25;;;21.05;73.11
81622;BME280;71029;50.742;7.090;2023-07-29T11:35:08;100421.38;;;21.07;72.73
81622;BME280;71029;50.742;7.090;2023-07-29T11:37:37;100416.78;;;21.08;72.34
81622;BME280;71029;50.742;7.090;2023-07-29T11:40:04;100417.59;;;21.08;73.21
81622;BME280;71029;50.742;7.090;2023-07-29T11:42:33;100422.19;;;21.08;73.39
81622;BME280;71029;50.742;7.090;2023-07-29T11:45:01;100418.66;;;21.07;73.04
81622;BME280;71029;50.742;7.090;2023-07-29T11:47:28;100415.13;;;21.07;73.35
81622;BME280;71029;50.742;7.090;2023-07-29T11:49:58;100416.78;;;21.08;73.14
81622;BME280;71029;50.742;7.090;2023-07-29T11:52:27;100400.53;;;21.08;72.70
81622;BME280;71029;50.742;7.090;2023-07-29T11:54:54;100394.88;;;21.09;72.73
81622;BME280;71029;50.742;7.090;2023-07-29T11:57:20;100383.22;;;21.09;73.43
81622;BME280;71029;50.742;7.090;2023-07-29T11:59:47;100383.00;;;21.10;72.96
81622;BME280;71029;50.742;7.090;2023-07-29T12:02:16;100383.59;;;21.12;73.06
81622;BME280;71029;50.742;7.090;2023-07-29T12:04:44;100388.78;;;21.14;73.30
81622;BME280;71029;50.742;7.090;2023-07-29T12:07:13;100390.91;;;21.12;73.06
81622;BME280;71029;50.742;7.090;2023-07-29T12:09:42;100390.41;;;21.15;72.70
81622;BME280;71029;50.742;7.090;2023-07-29T12:12:09;100382.88;;;21.17;72.22
81622;BME280;71029;50.742;7.090;2023-07-29T12:14:35;100384.56;;;21.18;72.50
81622;BME280;71029;50.742;7.090;2023-07-29T12:17:04;100378.66;;;21.21;71.96
81622;BME280;71029;50.742;7.090;2023-07-29T12:19:35;100381.38;;;21.21;72.31
81622;BME280;71029;50.742;7.090;2023-07-29T12:22:06;100379.72;;;21.20;72.35
81622;BME280;71029;50.742;7.090;2023-07-29T12:24:35;100369.94;;;21.19;72.43
81622;BME280;71029;50.742;7.090;2023-07-29T12:27:01;100369.94;;;21.19;72.41
81622;BME280;71029;50.742;7.090;2023-07-29T12:29:28;100366.19;;;21.20;72.42
81622;BME280;71029;50.742;7.090;2023-07-29T12:32:02;100369.47;;;21.22;72.00
81622;BME280;71029;50.742;7.090;2023-07-29T12:34:30;100364.63;;;21.24;71.78
81622;BME280;71029;50.742;7.090;2023-07-29T12:36:58;100365.25;;;21.26;71.47
81622;BME280;71029;50.742;7.090;2023-07-29T12:41:55;100359.84;;;21.26;71.81
81622;BME280;71029;50.742;7.090;2023-07-29T12:44:32;100362.53;;;21.26;71.32
81622;BME280;71029;50.742;7.090;2023-07-29T12:47:04;100361.50;;;21.27;71.38
81622;BME280;71029;50.742;7.090;2023-07-29T12:49:31;100357.75;;;21.28;71.50
81622;BME280;71029;50.742;7.090;2023-07-29T12:51:59;100360.22;;;21.30;71.37
81622;BME280;71029;50.742;7.090;2023-07-29T12:54:26;100346.41;;;21.31;71.24
81622;BME280;71029;50.742;7.090;2023-07-29T12:56:52;100345.34;;;21.32;71.40
81622;BME280;71029;50.742;7.090;2023-07-29T12:59:19;100334.66;;;21.37;71.14
81622;BME280;71029;50.742;7.090;2023-07-29T13:01:45;100346.31;;;21.38;71.48
81622;BME280;71029;50.742;7.090;2023-07-29T13:04:12;100343.38;;;21.39;70.96
81622;BME280;71029;50.742;7.090;2023-07-29T13:06:39;100345.00;;;21.40;71.05
81622;BME280;71029;50.742;7.090;2023-07-29T13:09:06;100340.91;;;21.38;71.11
81622;BME280;71029;50.742;7.090;2023-07-29T13:11:32;100343.25;;;21.34;70.98
81622;BME280;71029;50.742;7.090;2023-07-29T13:13:59;100342.66;;;21.32;71.23
81622;BME280;71029;50.742;7.090;2023-07-29T13:16:30;100351.84;;;21.31;71.27
81622;BME280;71029;50.742;7.090;2023-07-29T13:18:57;100346.66;;;21.30;71.07